createdAt,value
2023-05-19T00:02:13.156Z,9.54
2023-05-19T00:04:48.386Z,9.53
2023-05-19T00:07:25.991Z,9.51
2023-05-19T00:10:00.188Z,9.49
2023-05-19T00:12:34.135Z,9.45
2023-05-19T00:15:10.823Z,9.42
2023-05-19T00:17:44.240Z,9.40
2023-05-19T00:20:18.273Z,9.38
2023-05-19T00:22:52.655Z,9.36
2023-05-19T00:25:26.357Z,9.34
2023-05-19T00:28:00.149Z,9.32
2023-05-19T00:30:33.903Z,9.30
2023-05-19T00:33:07.657Z,9.28
2023-05-19T00:35:41.739Z,9.26
2023-05-19T00:38:15.082Z,9.25
2023-05-19T00:40:48.708Z,9.22
2023-05-19T00:43:21.955Z,9.23
2023-05-19T00:45:55.388Z,9.23
2023-05-19T00:48:29.568Z,9.20
2023-05-19T00:51:06.708Z,9.17
2023-05-19T00:53:40.357Z,9.15
2023-05-19T00:56:13.829Z,9.12
2023-05-19T00:58:47.740Z,9.09
2023-05-19T01:01:21.907Z,9.05
2023-05-19T01:03:57.082Z,9.02
2023-05-19T01:06:30.558Z,8.99
2023-05-19T01:09:04.248Z,8.97
2023-05-19T01:11:37.263Z,8.93
2023-05-19T01:14:10.750Z,8.90
2023-05-19T01:16:49.064Z,8.87
2023-05-19T01:19:46.881Z,8.85
2023-05-19T01:22:38.171Z,8.83
2023-05-19T01:25:43.996Z,8.81
2023-05-19T01:28:54.700Z,8.79
2023-05-19T01:31:29.406Z,8.78
2023-05-19T01:34:05.152Z,8.75
2023-05-19T01:36:40.405Z,8.73
2023-05-19T01:39:14.976Z,8.70
2023-05-19T01:41:49.061Z,8.69
2023-05-19T01:44:23.592Z,8.70
2023-05-19T01:46:57.395Z,8.69
2023-05-19T01:49:30.451Z,8.70
2023-05-19T01:52:03.710Z,8.69
2023-05-19T01:54:37.287Z,8.68
2023-05-19T01:57:26.276Z,8.67
2023-05-19T02:00:16.419Z,8.68
2023-05-19T02:03:06.138Z,8.67
2023-05-19T02:05:44.553Z,8.67
2023-05-19T02:08:26.036Z,8.67
2023-05-19T02:11:04.257Z,8.68
2023-05-19T02:13:45.034Z,8.68
2023-05-19T02:16:20.267Z,8.68
2023-05-19T02:18:54.227Z,8.68
2023-05-19T02:21:27.456Z,8.69
2023-05-19T02:24:01.374Z,8.69
2023-05-19T02:26:34.486Z,8.68
2023-05-19T02:29:10.182Z,8.68
2023-05-19T02:31:43.435Z,8.67
2023-05-19T02:34:16.795Z,8.66
2023-05-19T02:36:50.822Z,8.59
2023-05-19T02:39:24.098Z,8.66
2023-05-19T02:41:57.944Z,8.66
2023-05-19T02:44:31.169Z,8.65
2023-05-19T02:47:04.232Z,8.65
2023-05-19T02:49:38.108Z,8.64
2023-05-19T02:52:12.317Z,8.63
2023-05-19T02:54:46.457Z,8.62
2023-05-19T02:57:19.629Z,8.63
2023-05-19T02:59:53.053Z,8.63
2023-05-19T03:02:26.323Z,8.64
2023-05-19T03:05:01.958Z,8.64
2023-05-19T03:07:35.377Z,8.63
2023-05-19T03:10:10.716Z,8.62
2023-05-19T03:12:43.907Z,8.61
2023-05-19T03:15:17.676Z,8.60
2023-05-19T03:17:51.153Z,8.60
2023-05-19T03:20:24.770Z,8.62
2023-05-19T03:22:58.151Z,8.61
2023-05-19T03:25:31.697Z,8.62
2023-05-19T03:28:05.364Z,8.63
2023-05-19T03:30:39.066Z,8.66
2023-05-19T03:33:17.170Z,8.68
2023-05-19T03:35:51.068Z,8.71
2023-05-19T03:38:24.252Z,8.74
2023-05-19T03:41:02.271Z,8.78
2023-05-19T03:43:35.183Z,8.81
2023-05-19T03:46:09.715Z,8.84
2023-05-19T03:49:03.138Z,8.87
2023-05-19T03:51:59.557Z,8.91
2023-05-19T03:54:39.979Z,8.94
2023-05-19T03:57:13.332Z,8.98
2023-05-19T03:59:46.718Z,9.02
2023-05-19T04:02:19.932Z,9.08
2023-05-19T04:04:54.390Z,9.15
2023-05-19T04:07:27.696Z,9.22
2023-05-19T04:10:00.988Z,9.20
2023-05-19T04:12:34.576Z,9.34
2023-05-19T04:15:11.542Z,9.42
2023-05-19T04:17:45.728Z,9.52
2023-05-19T04:20:18.999Z,9.62
2023-05-19T04:22:52.338Z,9.71
2023-05-19T04:25:25.793Z,9.80
2023-05-19T04:27:59.333Z,9.87
2023-05-19T04:30:33.950Z,9.94
2023-05-19T04:33:07.938Z,10.00
2023-05-19T04:35:41.678Z,10.06
2023-05-19T04:38:19.143Z,10.12
2023-05-19T04:40:53.461Z,10.17
2023-05-19T04:43:28.718Z,10.22
2023-05-19T04:46:06.431Z,10.27
2023-05-19T04:48:40.266Z,10.30
2023-05-19T04:51:14.630Z,10.35
2023-05-19T04:53:48.401Z,10.36
2023-05-19T04:56:22.251Z,10.38
2023-05-19T04:58:56.722Z,10.40
2023-05-19T05:01:31.587Z,10.45
2023-05-19T05:04:17.300Z,10.48
2023-05-19T05:07:36.562Z,10.49
2023-05-19T05:11:07.710Z,10.50
2023-05-19T05:14:21.223Z,10.54
2023-05-19T05:17:16.464Z,10.59
2023-05-19T05:19:51.252Z,10.63
2023-05-19T05:22:25.587Z,10.66
2023-05-19T05:25:00.913Z,10.68
2023-05-19T05:27:34.380Z,10.70
2023-05-19T05:30:09.499Z,10.72
2023-05-19T05:32:43.834Z,10.78
2023-05-19T05:35:27.069Z,10.82
2023-05-19T05:38:01.926Z,10.86
2023-05-19T05:40:35.324Z,10.90
2023-05-19T05:43:09.282Z,10.87
2023-05-19T05:45:47.222Z,10.95
2023-05-19T05:48:21.759Z,10.98
2023-05-19T05:50:58.169Z,11.02
2023-05-19T05:53:36.342Z,11.07
2023-05-19T05:56:12.021Z,11.12
2023-05-19T05:58:51.057Z,11.16
2023-05-19T06:01:24.421Z,11.20
2023-05-19T06:03:58.566Z,11.24
2023-05-19T06:06:33.011Z,11.28
2023-05-19T06:09:07.988Z,11.29
2023-05-19T06:11:41.238Z,11.31
2023-05-19T06:14:15.294Z,11.36
2023-05-19T06:17:09.578Z,11.38
2023-05-19T06:19:43.604Z,11.39
2023-05-19T06:22:17.054Z,11.36
2023-05-19T06:24:50.715Z,11.35
2023-05-19T06:27:26.238Z,11.35
2023-05-19T06:29:59.727Z,11.33
2023-05-19T06:32:33.734Z,11.31
2023-05-19T06:35:08.157Z,11.30
2023-05-19T06:37:42.113Z,11.31
2023-05-19T06:40:17.286Z,11.32
2023-05-19T06:42:51.929Z,11.32
2023-05-19T06:45:37.979Z,11.36
2023-05-19T06:48:11.600Z,11.37
2023-05-19T06:50:46.384Z,11.38
2023-05-19T06:53:20.942Z,11.43
2023-05-19T06:55:59.714Z,11.48
2023-05-19T06:58:37.266Z,11.50
2023-05-19T07:01:11.557Z,11.54
2023-05-19T07:03:50.004Z,11.53
2023-05-19T07:06:23.342Z,11.58
2023-05-19T07:08:57.439Z,11.62
2023-05-19T07:11:31.482Z,11.70
2023-05-19T07:14:04.880Z,11.81
2023-05-19T07:16:38.389Z,11.91
2023-05-19T07:19:12.085Z,12.01
2023-05-19T07:21:45.415Z,12.10
2023-05-19T07:24:19.889Z,12.18
2023-05-19T07:26:53.339Z,12.24
2023-05-19T07:29:27.175Z,12.32
2023-05-19T07:32:00.810Z,12.33
2023-05-19T07:34:34.362Z,12.34
2023-05-19T07:37:08.126Z,12.38
2023-05-19T07:39:41.582Z,12.42
2023-05-19T07:42:15.080Z,12.45
2023-05-19T07:44:48.412Z,12.42
2023-05-19T07:47:21.904Z,12.43
2023-05-19T07:49:55.287Z,12.47
2023-05-19T07:52:31.658Z,12.52
2023-05-19T07:55:08.498Z,12.60
2023-05-19T07:57:42.625Z,12.63
2023-05-19T08:00:20.371Z,12.64
2023-05-19T08:02:58.350Z,12.69
2023-05-19T08:05:32.989Z,12.79
2023-05-19T08:08:08.605Z,12.89
2023-05-19T08:10:44.468Z,13.00
2023-05-19T08:13:19.600Z,13.10
2023-05-19T08:16:01.932Z,13.22
2023-05-19T08:18:36.987Z,13.32
2023-05-19T08:21:11.370Z,13.40
2023-05-19T08:23:45.536Z,13.44
2023-05-19T08:26:22.279Z,13.50
2023-05-19T08:28:57.639Z,13.60
2023-05-19T08:31:31.541Z,13.69
2023-05-19T08:34:05.009Z,13.77
2023-05-19T08:36:38.410Z,13.92
2023-05-19T08:39:12.097Z,14.05
2023-05-19T08:41:45.693Z,14.18
2023-05-19T08:44:19.303Z,14.27
2023-05-19T08:46:56.041Z,14.29
2023-05-19T08:49:34.333Z,14.32
2023-05-19T08:52:17.359Z,14.36
2023-05-19T08:54:56.144Z,14.34
2023-05-19T08:57:29.736Z,14.30
2023-05-19T09:00:05.199Z,14.24
2023-05-19T09:02:55.050Z,14.23
2023-05-19T09:05:37.562Z,14.26
2023-05-19T09:08:09.155Z,14.25
2023-05-19T09:10:42.763Z,14.28
2023-05-19T09:13:16.732Z,14.34
2023-05-19T09:15:52.442Z,14.38
2023-05-19T09:18:25.842Z,14.40
2023-05-19T09:21:03.226Z,14.43
2023-05-19T09:23:37.188Z,14.46
2023-05-19T09:26:11.063Z,14.55
2023-05-19T09:28:45.506Z,14.65
2023-05-19T09:31:19.202Z,14.72
2023-05-19T09:33:56.652Z,14.77
2023-05-19T09:36:32.527Z,14.83
2023-05-19T09:39:14.610Z,14.86
2023-05-19T09:41:48.800Z,14.92
2023-05-19T09:44:31.063Z,14.90
2023-05-19T09:47:07.781Z,14.97
2023-05-19T09:49:49.469Z,14.97
2023-05-19T09:52:23.640Z,14.96
2023-05-19T09:54:58.098Z,15.01
2023-05-19T09:57:38.987Z,14.99
2023-05-19T10:00:17.319Z,14.91
2023-05-19T10:02:52.639Z,14.86
2023-05-19T10:05:28.444Z,14.89
2023-05-19T10:08:03.040Z,14.99
2023-05-19T10:10:40.532Z,15.06
2023-05-19T10:13:14.360Z,15.16
2023-05-19T10:15:58.085Z,15.30
2023-05-19T10:18:34.667Z,15.41
2023-05-19T10:21:18.201Z,15.47
2023-05-19T10:23:52.685Z,15.52
2023-05-19T10:26:27.831Z,15.53
2023-05-19T10:29:01.509Z,15.50
2023-05-19T10:31:37.701Z,15.53
2023-05-19T10:34:42.250Z,15.51
2023-05-19T10:37:27.584Z,15.49
2023-05-19T10:40:01.917Z,15.37
2023-05-19T10:42:42.585Z,15.43
2023-05-19T10:45:20.100Z,15.40
2023-05-19T10:47:56.023Z,15.28
2023-05-19T10:50:37.051Z,15.24
2023-05-19T10:53:19.581Z,15.21
2023-05-19T10:55:59.473Z,15.19
2023-05-19T10:58:50.853Z,15.17
2023-05-19T11:01:26.743Z,15.10
2023-05-19T11:04:09.413Z,14.87
2023-05-19T11:07:24.810Z,14.68
2023-05-19T11:09:56.427Z,14.56
2023-05-19T11:12:44.358Z,14.54
2023-05-19T11:15:18.090Z,14.53
2023-05-19T11:17:52.684Z,14.52
2023-05-19T11:20:27.497Z,14.53
2023-05-19T11:23:10.972Z,14.52
2023-05-19T11:25:49.332Z,14.57
2023-05-19T11:28:26.902Z,14.65
2023-05-19T11:31:02.561Z,14.72
2023-05-19T11:33:36.304Z,14.75
2023-05-19T11:36:10.202Z,14.68
2023-05-19T11:38:44.152Z,14.55
2023-05-19T11:41:20.778Z,14.43
2023-05-19T11:43:54.261Z,14.37
2023-05-19T11:46:27.717Z,14.36
2023-05-19T11:49:02.588Z,14.35
2023-05-19T11:51:36.401Z,14.39
2023-05-19T11:54:10.092Z,14.49
2023-05-19T11:56:44.821Z,14.60
2023-05-19T11:59:18.473Z,14.66
2023-05-19T12:01:52.028Z,14.68
2023-05-19T12:04:26.020Z,14.70
2023-05-19T12:07:00.040Z,14.65
2023-05-19T12:09:35.142Z,14.62
2023-05-19T12:12:10.359Z,14.62
2023-05-19T12:14:45.852Z,14.62
2023-05-19T12:17:21.070Z,14.62
2023-05-19T12:19:54.898Z,14.60
2023-05-19T12:22:28.487Z,14.60
2023-05-19T12:25:02.109Z,14.67
2023-05-19T12:27:39.538Z,14.77
2023-05-19T12:30:15.897Z,14.83
2023-05-19T12:32:52.163Z,14.85
2023-05-19T12:35:29.875Z,14.82
2023-05-19T12:38:06.769Z,14.77
2023-05-19T12:40:40.901Z,14.70
2023-05-19T12:43:22.441Z,14.65
2023-05-19T12:45:56.087Z,14.60
2023-05-19T12:48:30.849Z,14.57
2023-05-19T12:51:05.890Z,14.56
2023-05-19T12:53:41.262Z,14.57
2023-05-19T12:56:16.144Z,14.58
2023-05-19T12:58:49.779Z,14.60
2023-05-19T13:01:24.444Z,14.65
2023-05-19T13:03:58.732Z,14.69
2023-05-19T13:06:33.432Z,14.78
2023-05-19T13:09:07.449Z,14.88
2023-05-19T13:11:40.882Z,14.90
2023-05-19T13:14:18.692Z,14.96
2023-05-19T13:16:52.349Z,15.18
2023-05-19T13:19:28.621Z,15.35
2023-05-19T13:22:01.089Z,15.37
2023-05-19T13:24:34.269Z,15.37
2023-05-19T13:27:08.270Z,15.48
2023-05-19T13:29:41.501Z,15.54
2023-05-19T13:32:14.830Z,15.60
2023-05-19T13:34:48.342Z,15.63
2023-05-19T13:37:21.854Z,15.65
2023-05-19T13:39:55.017Z,15.66
2023-05-19T13:42:29.213Z,15.69
2023-05-19T13:45:02.614Z,15.67
2023-05-19T13:47:36.348Z,15.73
2023-05-19T13:50:11.248Z,15.76
2023-05-19T13:52:45.327Z,15.71
2023-05-19T13:55:20.079Z,15.62
2023-05-19T13:57:53.480Z,15.56
2023-05-19T14:00:27.487Z,15.51
2023-05-19T15:42:40.957Z,14.51
2023-05-19T15:45:15.095Z,14.48
2023-05-19T15:47:48.979Z,14.49
2023-05-19T15:50:22.875Z,14.52
2023-05-19T15:52:57.020Z,14.51
2023-05-19T15:55:30.729Z,14.53
2023-05-19T15:58:04.077Z,14.53
2023-05-19T16:00:37.676Z,14.40
2023-05-19T16:03:11.440Z,14.54
2023-05-19T16:05:46.421Z,14.52
2023-05-19T16:08:21.625Z,14.49
2023-05-19T16:10:55.517Z,14.48
2023-05-19T16:13:30.714Z,14.47
2023-05-19T16:16:04.430Z,14.44
2023-05-19T16:18:38.421Z,14.40
2023-05-19T16:21:12.083Z,14.36
2023-05-19T16:23:45.839Z,14.36
2023-05-19T16:26:19.318Z,14.35
2023-05-19T16:28:53.056Z,14.33
2023-05-19T16:31:26.518Z,14.36
2023-05-19T16:34:00.237Z,14.37
2023-05-19T16:36:33.614Z,14.37
2023-05-19T16:39:09.434Z,14.38
2023-05-19T16:41:42.994Z,14.37
2023-05-19T16:44:17.469Z,14.35
2023-05-19T16:46:51.038Z,14.34
2023-05-19T16:49:24.604Z,14.25
2023-05-19T16:51:58.261Z,14.28
2023-05-19T16:54:32.295Z,14.25
2023-05-19T16:57:06.169Z,14.21
2023-05-19T16:59:41.889Z,14.19
2023-05-19T17:02:16.699Z,14.16
2023-05-19T17:04:51.719Z,14.16
2023-05-19T17:07:28.134Z,14.08
2023-05-19T17:10:01.668Z,14.12
2023-05-19T17:12:35.690Z,14.10
2023-05-19T17:15:11.443Z,14.03
2023-05-19T17:17:43.713Z,14.08
2023-05-19T17:20:18.939Z,14.01
2023-05-19T17:22:53.803Z,14.02
2023-05-19T17:25:27.962Z,13.99
2023-05-19T17:28:03.044Z,13.98
2023-05-19T17:30:37.137Z,13.95
2023-05-19T17:33:10.718Z,13.93
2023-05-19T17:35:46.007Z,13.92
2023-05-19T17:38:20.529Z,13.88
2023-05-19T17:40:54.707Z,13.84
2023-05-19T17:43:29.912Z,13.79
2023-05-19T17:46:05.138Z,13.75
2023-05-19T17:48:39.958Z,13.62
2023-05-19T17:51:13.878Z,13.68
2023-05-19T17:53:48.678Z,13.63
2023-05-19T17:56:24.622Z,13.59
2023-05-19T17:58:59.436Z,13.57
2023-05-19T18:01:35.054Z,13.56
2023-05-19T18:04:10.409Z,13.53
2023-05-19T18:06:46.279Z,13.49
2023-05-19T18:09:27.875Z,13.45
2023-05-19T18:12:03.888Z,13.42
2023-05-19T18:14:38.667Z,13.39
2023-05-19T18:17:12.833Z,13.36
2023-05-19T18:19:47.308Z,13.33
2023-05-19T18:22:20.697Z,13.29
2023-05-19T18:24:54.315Z,13.25
2023-05-19T18:27:29.438Z,13.22
2023-05-19T18:30:03.176Z,13.19
2023-05-19T18:32:37.007Z,13.16
2023-05-19T18:35:12.453Z,13.13
2023-05-19T18:37:50.989Z,13.11
2023-05-19T18:40:25.367Z,13.08
2023-05-19T18:42:59.138Z,13.05
2023-05-19T18:45:33.031Z,13.01
2023-05-19T18:48:09.690Z,12.98
2023-05-19T18:50:45.674Z,12.95
2023-05-19T18:53:20.747Z,12.93
2023-05-19T18:55:57.739Z,12.89
2023-05-19T18:58:30.560Z,12.87
2023-05-19T19:01:05.926Z,12.85
2023-05-19T19:03:42.459Z,12.83
2023-05-19T19:06:17.481Z,12.81
2023-05-19T19:08:51.132Z,12.80
2023-05-19T19:11:24.637Z,12.78
2023-05-19T19:13:59.525Z,12.76
2023-05-19T19:16:33.479Z,12.72
2023-05-19T19:19:07.923Z,12.71
2023-05-19T19:21:41.872Z,12.69
2023-05-19T19:24:15.369Z,12.69
2023-05-19T19:26:49.220Z,12.68
2023-05-19T19:29:22.958Z,12.68
2023-05-19T19:31:56.564Z,12.67
2023-05-19T19:34:30.689Z,12.67
2023-05-19T19:37:04.432Z,12.66
2023-05-19T19:39:44.211Z,12.64
2023-05-19T19:42:20.253Z,12.62
2023-05-19T19:45:00.306Z,12.60
2023-05-19T19:47:40.529Z,12.57
2023-05-19T19:50:16.730Z,12.56
2023-05-19T19:52:52.113Z,12.53
2023-05-19T19:55:29.839Z,12.53
2023-05-19T19:58:09.103Z,12.51
2023-05-19T20:00:43.944Z,12.49
2023-05-19T20:03:19.800Z,12.48
2023-05-19T20:05:58.956Z,12.45
2023-05-19T20:08:37.340Z,12.43
2023-05-19T20:11:15.589Z,12.42
2023-05-19T20:13:53.698Z,12.40
2023-05-19T20:16:30.167Z,12.39
2023-05-19T20:19:09.306Z,12.38
2023-05-19T20:21:47.480Z,12.37
2023-05-19T20:24:25.026Z,12.35
2023-05-19T20:27:03.192Z,12.34
2023-05-19T20:29:40.228Z,12.33
2023-05-19T20:32:14.752Z,12.31
2023-05-19T20:34:50.305Z,12.30
2023-05-19T20:37:27.129Z,12.29
2023-05-19T20:40:01.353Z,12.28
2023-05-19T20:42:38.769Z,12.25
2023-05-19T20:45:14.297Z,12.21
2023-05-19T20:47:47.873Z,12.16
2023-05-19T20:50:24.939Z,12.12
2023-05-19T20:53:01.552Z,12.12
2023-05-19T20:55:39.103Z,12.12
2023-05-19T20:58:18.573Z,12.13
2023-05-19T21:00:58.234Z,12.14
2023-05-19T21:03:32.500Z,12.12
2023-05-19T21:06:07.544Z,12.10
2023-05-19T21:08:42.619Z,12.09
2023-05-19T21:11:16.104Z,12.09
2023-05-19T21:13:51.764Z,12.09
2023-05-19T21:16:26.726Z,12.09
2023-05-19T21:19:00.531Z,12.07
2023-05-19T21:21:34.492Z,12.06
2023-05-19T21:24:10.884Z,12.05
2023-05-19T21:26:49.748Z,12.04
2023-05-19T21:29:24.026Z,12.02
2023-05-19T21:32:00.122Z,12.00
2023-05-19T21:34:36.478Z,12.00
2023-05-19T21:37:12.129Z,11.99
2023-05-19T21:39:48.834Z,12.00
2023-05-19T21:42:23.103Z,11.99
2023-05-19T21:44:58.072Z,11.99
2023-05-19T21:47:33.721Z,11.98
2023-05-19T21:50:11.497Z,11.97
2023-05-19T21:52:45.136Z,11.96
2023-05-19T21:55:19.093Z,11.96
2023-05-19T21:57:52.609Z,11.96
2023-05-19T22:00:26.099Z,11.95
2023-05-19T22:02:59.532Z,11.95
2023-05-19T22:05:35.647Z,11.94
2023-05-19T22:08:09.332Z,11.92
2023-05-19T22:10:43.379Z,11.92
2023-05-19T22:13:16.726Z,11.92
2023-05-19T22:15:50.272Z,11.92
2023-05-19T22:18:24.130Z,11.91
2023-05-19T22:20:58.140Z,11.91
2023-05-19T22:23:31.574Z,11.91
2023-05-19T22:26:05.080Z,11.90
2023-05-19T22:28:38.694Z,11.90
2023-05-19T22:31:12.172Z,11.89
2023-05-19T22:33:45.636Z,11.88
2023-05-19T22:36:19.530Z,11.88
2023-05-19T22:38:53.071Z,11.87
2023-05-19T22:41:26.773Z,11.88
2023-05-19T22:44:00.124Z,11.88
2023-05-19T22:46:34.514Z,11.88
2023-05-19T22:49:07.867Z,11.87
2023-05-19T22:51:41.598Z,11.87
2023-05-19T22:54:14.976Z,11.87
2023-05-19T22:56:49.140Z,11.85
2023-05-19T22:59:22.796Z,11.83
2023-05-19T23:01:56.360Z,11.81
2023-05-19T23:04:30.005Z,11.79
2023-05-19T23:07:04.222Z,11.79
2023-05-19T23:09:37.587Z,11.78
2023-05-19T23:12:11.700Z,11.78
2023-05-19T23:14:45.205Z,11.78
2023-05-19T23:17:18.594Z,11.78
2023-05-19T23:19:52.075Z,11.79
2023-05-19T23:22:25.606Z,11.78
2023-05-19T23:24:59.116Z,11.79
2023-05-19T23:27:32.896Z,11.78
2023-05-19T23:30:07.625Z,11.77
2023-05-19T23:32:41.572Z,11.76
2023-05-19T23:35:17.654Z,11.76
2023-05-19T23:37:50.662Z,11.76
2023-05-19T23:40:24.433Z,11.76
2023-05-19T23:42:57.784Z,11.77
2023-05-19T23:45:30.903Z,11.75
2023-05-19T23:48:04.353Z,11.73
2023-05-19T23:50:37.619Z,11.72
2023-05-19T23:53:10.870Z,11.72
2023-05-19T23:55:43.987Z,11.73
2023-05-19T23:58:17.341Z,11.74
